Time;durP1;ratioP1;P1;durP2;ratioP2;P2;SDS_P1;SDS_P2;PMS_P1;PMS_P2;Temp;Humidity;BMP_temperature;BMP_pressure;BME280_temperature;BME280_humidity;BME280_pressure;Samples;Min_cycle;Max_cycle;Signal;HPM_P1;HPM_P2
2024/01/14 00:00:57;;;;;;;47.17;22.77;;;;;;;;;;5104495;28;20211;-74
2024/01/14 00:03:24;;;;;;;42.72;21.38;;;;;;;;;;5109599;28;20901;-73
2024/01/14 00:05:51;;;;;;;40.85;21.35;;;;;;;;;;5110913;28;20223;-73
2024/01/14 00:08:17;;;;;;;41.40;21.50;;;;;;;;;;5100495;28;20307;-73
2024/01/14 00:10:43;;;;;;;41.83;20.80;;;;;;;;;;5091016;28;20265;-72
2024/01/14 00:13:09;;;;;;;45.17;21.92;;;;;;;;;;5091745;28;20652;-73
2024/01/14 00:15:35;;;;;;;46.65;22.23;;;;;;;;;;5103866;28;20667;-75
2024/01/14 00:18:01;;;;;;;48.97;23.05;;;;;;;;;;5111507;27;20230;-75
2024/01/14 00:20:29;;;;;;;46.33;23.10;;;;;;;;;;5108834;28;20658;-75
2024/01/14 00:22:55;;;;;;;45.90;21.40;;;;;;;;;;5091039;28;20806;-73
2024/01/14 00:25:21;;;;;;;43.90;21.90;;;;;;;;;;5090974;28;20224;-75
2024/01/14 00:27:48;;;;;;;50.67;23.38;;;;;;;;;;5110400;28;20719;-75
2024/01/14 00:30:14;;;;;;;44.92;21.90;;;;;;;;;;5110793;28;20206;-74
2024/01/14 00:32:40;;;;;;;46.97;21.58;;;;;;;;;;5111365;28;20211;-73
2024/01/14 00:38:15;;;;;;;49.10;22.58;;;;;;;;;;5103610;28;20248;-73
2024/01/14 00:40:41;;;;;;;45.15;21.13;;;;;;;;;;5102417;28;20278;-73
2024/01/14 00:43:07;;;;;;;44.85;21.75;;;;;;;;;;5110132;28;20732;-74
2024/01/14 00:45:34;;;;;;;50.92;23.33;;;;;;;;;;5107003;28;20220;-73
2024/01/14 00:48:00;;;;;;;46.58;22.38;;;;;;;;;;5088865;28;20203;-74
2024/01/14 00:50:26;;;;;;;52.00;23.60;;;;;;;;;;5099190;28;20248;-73
2024/01/14 00:52:52;;;;;;;47.63;22.55;;;;;;;;;;5101124;28;20207;-74
2024/01/14 00:55:20;;;;;;;46.38;23.10;;;;;;;;;;5108484;28;20235;-74
2024/01/14 00:57:47;;;;;;;47.40;23.40;;;;;;;;;;5102403;28;20442;-76
2024/01/14 01:00:13;;;;;;;52.28;23.30;;;;;;;;;;5109453;28;20850;-74
2024/01/14 01:02:40;;;;;;;50.22;23.45;;;;;;;;;;5097132;28;20215;-75
2024/01/14 01:05:06;;;;;;;46.70;22.58;;;;;;;;;;5105940;28;20203;-76
2024/01/14 01:07:32;;;;;;;46.67;22.63;;;;;;;;;;5107093;28;20195;-74
2024/01/14 01:09:59;;;;;;;46.60;22.95;;;;;;;;;;5089493;28;20227;-75
2024/01/14 01:12:26;;;;;;;49.85;23.55;;;;;;;;;;5090938;28;20204;-74
2024/01/14 01:14:52;;;;;;;45.25;22.05;;;;;;;;;;5095140;28;20207;-75
2024/01/14 01:17:19;;;;;;;45.47;23.17;;;;;;;;;;5088297;28;20230;-76
2024/01/14 01:19:45;;;;;;;47.45;22.88;;;;;;;;;;5088275;28;20316;-74
2024/01/14 01:22:12;;;;;;;50.92;23.00;;;;;;;;;;5100406;28;20207;-75
2024/01/14 01:24:38;;;;;;;49.47;23.42;;;;;;;;;;5089056;28;20269;-75
2024/01/14 01:27:04;;;;;;;48.08;23.77;;;;;;;;;;5088769;28;20306;-75
2024/01/14 01:29:32;;;;;;;46.58;22.40;;;;;;;;;;5100471;28;20207;-76
2024/01/14 01:31:58;;;;;;;45.25;23.17;;;;;;;;;;5109063;28;20255;-74
2024/01/14 01:34:24;;;;;;;47.92;23.55;;;;;;;;;;5109290;28;20203;-74
2024/01/14 01:36:51;;;;;;;50.55;23.27;;;;;;;;;;5108842;28;20287;-75
2024/01/14 01:39:17;;;;;;;46.70;23.27;;;;;;;;;;5109085;28;20295;-74
2024/01/14 01:41:43;;;;;;;50.63;24.08;;;;;;;;;;5108620;28;20199;-73
2024/01/14 01:44:09;;;;;;;51.85;24.48;;;;;;;;;;5110067;28;20218;-73
2024/01/14 01:46:37;;;;;;;51.25;24.35;;;;;;;;;;5115171;28;20358;-72
2024/01/14 01:49:31;;;;;;;51.50;24.08;;;;;;;;;;5115692;28;20259;-72
2024/01/14 01:51:58;;;;;;;51.97;25.05;;;;;;;;;;5116240;27;20747;-72
2024/01/14 01:54:25;;;;;;;54.38;24.50;;;;;;;;;;5114401;28;20194;-72
2024/01/14 01:56:52;;;;;;;50.33;23.98;;;;;;;;;;5114011;28;20219;-72
2024/01/14 01:59:19;;;;;;;52.35;23.88;;;;;;;;;;5114503;28;20223;-72
2024/01/14 02:01:47;;;;;;;48.17;23.50;;;;;;;;;;5114521;28;20202;-72
2024/01/14 02:04:14;;;;;;;47.78;23.45;;;;;;;;;;5114259;28;20290;-72
2024/01/14 02:06:41;;;;;;;51.20;23.63;;;;;;;;;;5114279;28;20275;-72
2024/01/14 02:09:08;;;;;;;53.10;24.10;;;;;;;;;;5115972;28;20195;-72
2024/01/14 02:11:34;;;;;;;54.20;24.30;;;;;;;;;;5116119;27;20203;-72
2024/01/14 02:14:00;;;;;;;50.40;23.95;;;;;;;;;;5116442;27;20199;-72
2024/01/14 02:16:26;;;;;;;45.63;23.90;;;;;;;;;;5116154;28;20639;-72
2024/01/14 02:18:54;;;;;;;47.70;23.27;;;;;;;;;;5115633;28;20567;-72
2024/01/14 02:21:22;;;;;;;47.33;23.67;;;;;;;;;;5115762;27;20732;-72
2024/01/14 02:23:50;;;;;;;51.20;24.08;;;;;;;;;;5116110;28;20327;-72
2024/01/14 02:26:18;;;;;;;48.42;23.38;;;;;;;;;;5116064;28;20219;-72
2024/01/14 02:28:44;;;;;;;56.88;24.83;;;;;;;;;;5115888;27;20659;-72
2024/01/14 02:31:10;;;;;;;49.30;25.80;;;;;;;;;;5115731;28;20226;-72
2024/01/14 02:33:37;;;;;;;49.28;24.50;;;;;;;;;;5115758;28;20199;-72
2024/01/14 02:36:03;;;;;;;49.78;24.23;;;;;;;;;;5115587;28;20223;-72
2024/01/14 02:38:29;;;;;;;55.28;25.15;;;;;;;;;;5115236;28;20710;-72
2024/01/14 02:40:56;;;;;;;57.30;25.80;;;;;;;;;;5115680;28;20724;-72
2024/01/14 02:43:23;;;;;;;50.45;24.30;;;;;;;;;;5116002;28;20225;-72
2024/01/14 02:45:49;;;;;;;46.40;22.65;;;;;;;;;;5115650;27;20219;-72
2024/01/14 02:48:16;;;;;;;48.03;23.25;;;;;;;;;;5115472;28;20207;-72
2024/01/14 02:50:42;;;;;;;47.30;23.90;;;;;;;;;;5115782;28;20199;-72
2024/01/14 02:53:08;;;;;;;45.58;22.67;;;;;;;;;;5115048;28;20211;-72
2024/01/14 02:55:34;;;;;;;42.30;23.75;;;;;;;;;;5115223;27;20688;-72
2024/01/14 02:58:01;;;;;;;42.70;21.77;;;;;;;;;;5114901;28;20687;-72
2024/01/14 03:00:28;;;;;;;41.78;22.23;;;;;;;;;;5115193;28;20663;-72
2024/01/14 03:02:54;;;;;;;39.97;21.42;;;;;;;;;;5115198;28;20735;-72
2024/01/14 03:05:21;;;;;;;39.85;22.40;;;;;;;;;;5115142;28;20219;-72
2024/01/14 03:07:47;;;;;;;40.83;22.25;;;;;;;;;;5114969;28;20199;-72
2024/01/14 03:10:13;;;;;;;39.85;21.83;;;;;;;;;;5115166;28;20195;-72
2024/01/14 03:12:40;;;;;;;45.78;23.38;;;;;;;;;;5115126;28;20282;-72
2024/01/14 03:15:07;;;;;;;44.03;22.88;;;;;;;;;;5115290;28;20252;-72
2024/01/14 03:17:34;;;;;;;48.42;23.48;;;;;;;;;;5115254;28;20606;-72
2024/01/14 03:20:00;;;;;;;47.72;24.25;;;;;;;;;;5114857;27;20222;-72
2024/01/14 03:22:27;;;;;;;48.20;23.42;;;;;;;;;;5114812;28;20205;-72
2024/01/14 03:24:53;;;;;;;43.05;22.65;;;;;;;;;;5115138;28;20199;-72
2024/01/14 03:27:19;;;;;;;47.08;23.85;;;;;;;;;;5114990;28;20195;-72
2024/01/14 03:29:45;;;;;;;48.03;23.00;;;;;;;;;;5114795;28;20203;-72
2024/01/14 03:32:12;;;;;;;49.60;23.17;;;;;;;;;;5114651;27;20619;-72
2024/01/14 03:34:39;;;;;;;52.60;24.58;;;;;;;;;;5114692;28;20737;-72
2024/01/14 03:37:05;;;;;;;54.25;24.38;;;;;;;;;;5114320;27;20707;-72
2024/01/14 03:39:32;;;;;;;55.08;24.77;;;;;;;;;;5114558;28;20718;-72
2024/01/14 03:41:58;;;;;;;52.88;24.25;;;;;;;;;;5114528;28;20687;-72
2024/01/14 03:44:24;;;;;;;57.88;25.00;;;;;;;;;;5114319;28;20941;-72
2024/01/14 03:46:50;;;;;;;50.65;24.05;;;;;;;;;;5114114;28;20246;-72
2024/01/14 03:49:17;;;;;;;55.13;24.40;;;;;;;;;;5114190;28;20252;-72
2024/01/14 03:51:44;;;;;;;52.22;24.73;;;;;;;;;;5114193;28;20281;-72
2024/01/14 03:54:10;;;;;;;59.38;25.42;;;;;;;;;;5114441;28;20199;-72
2024/01/14 03:56:36;;;;;;;60.85;25.92;;;;;;;;;;5114095;28;20231;-72
2024/01/14 03:59:03;;;;;;;56.75;23.67;;;;;;;;;;5114080;28;20219;-72
2024/01/14 04:01:29;;;;;;;54.40;24.45;;;;;;;;;;5113972;28;20211;-72
2024/01/14 04:03:55;;;;;;;57.80;25.20;;;;;;;;;;5114199;28;20229;-72
2024/01/14 04:06:23;;;;;;;53.92;23.88;;;;;;;;;;5113424;28;20215;-72
2024/01/14 04:08:50;;;;;;;56.35;24.90;;;;;;;;;;5114024;28;20198;-72
2024/01/14 04:11:17;;;;;;;60.22;26.05;;;;;;;;;;5113922;28;20252;-72
2024/01/14 04:13:43;;;;;;;54.05;25.02;;;;;;;;;;5114107;28;20334;-72
2024/01/14 04:16:09;;;;;;;55.33;24.23;;;;;;;;;;5113711;28;20480;-72
2024/01/14 04:18:35;;;;;;;60.53;25.45;;;;;;;;;;5113325;28;20267;-72
2024/01/14 04:21:01;;;;;;;57.22;24.48;;;;;;;;;;5113630;28;20248;-72
2024/01/14 04:23:28;;;;;;;52.75;23.60;;;;;;;;;;5113565;28;20685;-72
2024/01/14 04:25:55;;;;;;;57.03;24.40;;;;;;;;;;5113415;28;20766;-72
2024/01/14 04:28:22;;;;;;;53.78;24.15;;;;;;;;;;5113633;28;20195;-72
2024/01/14 04:30:51;;;;;;;55.05;25.23;;;;;;;;;;5114100;28;20210;-72
2024/01/14 04:33:17;;;;;;;57.05;24.30;;;;;;;;;;5117650;28;20252;-72
2024/01/14 04:35:43;;;;;;;61.03;26.27;;;;;;;;;;5120407;28;20276;-72
2024/01/14 04:38:09;;;;;;;58.45;25.05;;;;;;;;;;5119735;28;20203;-72
2024/01/14 04:40:36;;;;;;;61.78;26.08;;;;;;;;;;5113422;28;20195;-72
2024/01/14 04:43:05;;;;;;;59.95;25.63;;;;;;;;;;5113284;28;20227;-72
2024/01/14 04:45:31;;;;;;;59.97;26.40;;;;;;;;;;5112996;28;20230;-72
2024/01/14 04:47:58;;;;;;;53.83;24.63;;;;;;;;;;5113134;28;20207;-72
2024/01/14 04:50:24;;;;;;;54.97;23.98;;;;;;;;;;5113400;28;20681;-72
2024/01/14 04:52:50;;;;;;;58.65;23.98;;;;;;;;;;5113144;28;20724;-72
2024/01/14 04:55:16;;;;;;;57.67;25.45;;;;;;;;;;5112916;28;20711;-72
2024/01/14 04:57:43;;;;;;;54.22;25.73;;;;;;;;;;5112824;28;20693;-72
2024/01/14 05:00:12;;;;;;;61.40;25.17;;;;;;;;;;5112953;28;20335;-72
2024/01/14 05:02:38;;;;;;;60.67;26.00;;;;;;;;;;5112802;28;20683;-72
2024/01/14 05:05:04;;;;;;;58.88;25.00;;;;;;;;;;5112665;28;20736;-72
2024/01/14 05:07:31;;;;;;;60.90;24.65;;;;;;;;;;5112685;28;20671;-72
2024/01/14 05:09:57;;;;;;;58.38;24.42;;;;;;;;;;5112853;28;20203;-72
2024/01/14 05:12:23;;;;;;;59.05;24.92;;;;;;;;;;5112349;28;20255;-72
2024/01/14 05:14:50;;;;;;;55.83;24.73;;;;;;;;;;5112384;28;20294;-72
2024/01/14 05:17:17;;;;;;;56.80;25.23;;;;;;;;;;5112687;28;20232;-72
2024/01/14 05:19:43;;;;;;;55.75;22.88;;;;;;;;;;5111851;28;20219;-73
2024/01/14 05:22:10;;;;;;;47.50;22.17;;;;;;;;;;5112507;28;20210;-72
2024/01/14 05:24:36;;;;;;;53.05;22.70;;;;;;;;;;5112718;28;20240;-72
2024/01/14 05:27:02;;;;;;;50.90;21.55;;;;;;;;;;5112523;28;20222;-72
2024/01/14 05:29:28;;;;;;;49.10;21.95;;;;;;;;;;5112295;28;20224;-72
2024/01/14 05:31:55;;;;;;;50.97;22.40;;;;;;;;;;5112699;28;20267;-72
2024/01/14 05:34:22;;;;;;;48.72;21.65;;;;;;;;;;5112365;28;20260;-72
2024/01/14 05:36:48;;;;;;;56.30;24.25;;;;;;;;;;5112068;28;20229;-72
2024/01/14 05:39:15;;;;;;;58.47;24.50;;;;;;;;;;5112611;28;20267;-72
2024/01/14 05:41:41;;;;;;;50.53;21.85;;;;;;;;;;5112575;28;20214;-72
2024/01/14 05:44:07;;;;;;;58.70;23.52;;;;;;;;;;5112086;28;20248;-73
2024/01/14 05:46:33;;;;;;;59.95;24.20;;;;;;;;;;5112221;28;20227;-73
2024/01/14 05:49:00;;;;;;;62.75;25.83;;;;;;;;;;5112646;28;20199;-73
2024/01/14 05:51:27;;;;;;;64.78;25.70;;;;;;;;;;5112271;28;20202;-72
2024/01/14 05:53:53;;;;;;;60.95;25.98;;;;;;;;;;5112469;28;20256;-73
2024/01/14 05:56:26;;;;;;;62.38;25.42;;;;;;;;;;5112056;28;20503;-72
2024/01/14 05:58:52;;;;;;;61.67;25.92;;;;;;;;;;5112397;28;20314;-72
2024/01/14 06:01:19;;;;;;;69.63;27.33;;;;;;;;;;5112296;28;20210;-72
2024/01/14 06:03:45;;;;;;;58.58;23.83;;;;;;;;;;5112357;28;20849;-72
2024/01/14 06:06:11;;;;;;;57.92;23.98;;;;;;;;;;5112228;28;20226;-72
2024/01/14 06:08:41;;;;;;;55.33;23.13;;;;;;;;;;5111967;28;20199;-72
2024/01/14 06:11:07;;;;;;;58.35;23.40;;;;;;;;;;5112166;28;20195;-73
2024/01/14 06:13:33;;;;;;;51.15;21.90;;;;;;;;;;5112248;28;20251;-73
2024/01/14 06:16:00;;;;;;;51.55;22.23;;;;;;;;;;5111966;28;20218;-73
2024/01/14 06:18:28;;;;;;;53.92;22.83;;;;;;;;;;5112103;28;20200;-73
2024/01/14 06:20:55;;;;;;;51.58;22.10;;;;;;;;;;5112076;28;20630;-73
2024/01/14 06:23:21;;;;;;;46.65;20.33;;;;;;;;;;5111747;28;20683;-73
2024/01/14 06:25:49;;;;;;;50.42;20.90;;;;;;;;;;5111694;28;20222;-73
2024/01/14 06:28:15;;;;;;;49.22;20.95;;;;;;;;;;5111780;28;20667;-73
2024/01/14 06:30:41;;;;;;;44.47;19.80;;;;;;;;;;5114628;28;20202;-73
2024/01/14 06:33:09;;;;;;;44.35;19.77;;;;;;;;;;5115978;28;20268;-73
2024/01/14 06:35:35;;;;;;;44.25;19.63;;;;;;;;;;5115851;28;20321;-73
2024/01/14 06:38:01;;;;;;;43.72;19.05;;;;;;;;;;5115309;28;20206;-73
2024/01/14 06:40:28;;;;;;;49.97;20.73;;;;;;;;;;5115651;28;20280;-73
2024/01/14 06:42:56;;;;;;;42.92;20.05;;;;;;;;;;5115837;28;20199;-73
2024/01/14 06:45:22;;;;;;;49.25;21.27;;;;;;;;;;5115563;28;20306;-72
2024/01/14 06:47:48;;;;;;;40.80;19.60;;;;;;;;;;5115603;28;20195;-72
2024/01/14 06:50:14;;;;;;;47.10;21.17;;;;;;;;;;5115749;28;20199;-71
2024/01/14 06:52:42;;;;;;;50.50;19.95;;;;;;;;;;5115000;28;20207;-61
2024/01/14 06:55:08;;;;;;;43.33;19.77;;;;;;;;;;5115342;28;20199;-59
2024/01/14 06:57:35;;;;;;;46.92;21.27;;;;;;;;;;5115066;28;20203;-60
2024/01/14 07:00:04;;;;;;;46.25;20.65;;;;;;;;;;5115029;28;20276;-61
2024/01/14 07:02:30;;;;;;;46.75;21.08;;;;;;;;;;5114816;28;20301;-61
2024/01/14 07:04:56;;;;;;;44.55;18.58;;;;;;;;;;5114932;28;20206;-61
2024/01/14 07:07:22;;;;;;;50.15;21.15;;;;;;;;;;5114659;27;20716;-60
2024/01/14 07:09:48;;;;;;;48.78;20.17;;;;;;;;;;5115212;28;20248;-61
2024/01/14 07:12:15;;;;;;;46.65;21.30;;;;;;;;;;5114821;28;20250;-59
2024/01/14 07:14:41;;;;;;;45.42;20.73;;;;;;;;;;5114764;28;20203;-60
2024/01/14 07:17:09;;;;;;;49.15;20.92;;;;;;;;;;5114635;28;20215;-61
2024/01/14 07:19:35;;;;;;;50.17;21.45;;;;;;;;;;5114514;27;20250;-61
2024/01/14 07:22:02;;;;;;;50.55;21.92;;;;;;;;;;5114337;28;20252;-60
2024/01/14 07:24:28;;;;;;;46.28;21.15;;;;;;;;;;5114523;28;20260;-61
2024/01/14 07:26:54;;;;;;;51.35;22.88;;;;;;;;;;5114722;28;20214;-62
2024/01/14 07:29:20;;;;;;;46.40;21.05;;;;;;;;;;5114744;28;20203;-60
2024/01/14 07:31:47;;;;;;;53.67;22.00;;;;;;;;;;5114114;28;20683;-61
2024/01/14 07:34:14;;;;;;;48.90;21.85;;;;;;;;;;5114454;27;20203;-60
2024/01/14 07:36:40;;;;;;;52.95;22.88;;;;;;;;;;5114168;28;20235;-60
2024/01/14 07:39:07;;;;;;;52.05;22.98;;;;;;;;;;5114639;28;20284;-61
2024/01/14 07:41:33;;;;;;;53.65;22.00;;;;;;;;;;5113738;28;20548;-60
2024/01/14 07:43:59;;;;;;;49.03;22.17;;;;;;;;;;5114438;28;20744;-61
2024/01/14 07:46:25;;;;;;;54.80;22.40;;;;;;;;;;5114450;27;20226;-61
2024/01/14 07:48:52;;;;;;;50.88;22.08;;;;;;;;;;5113993;28;20203;-60
2024/01/14 07:51:19;;;;;;;54.17;22.77;;;;;;;;;;5114081;28;20285;-60
2024/01/14 07:53:45;;;;;;;52.97;22.52;;;;;;;;;;5113976;28;20203;-60
2024/01/14 07:56:12;;;;;;;51.50;24.33;;;;;;;;;;5113849;28;20666;-61
2024/01/14 07:58:38;;;;;;;53.65;22.27;;;;;;;;;;5113857;28;20202;-60
2024/01/14 08:01:06;;;;;;;54.65;22.77;;;;;;;;;;5113411;28;20264;-61
2024/01/14 08:03:32;;;;;;;49.85;23.05;;;;;;;;;;5113736;28;20203;-61
2024/01/14 08:05:58;;;;;;;54.33;22.92;;;;;;;;;;5113824;28;20221;-61
2024/01/14 08:08:26;;;;;;;49.85;23.23;;;;;;;;;;5113460;28;20728;-61
2024/01/14 08:10:52;;;;;;;54.03;23.73;;;;;;;;;;5113456;28;20199;-61
2024/01/14 08:13:18;;;;;;;57.92;25.70;;;;;;;;;;5113361;28;20234;-61
2024/01/14 08:15:45;;;;;;;52.05;22.83;;;;;;;;;;5113644;28;20248;-60
2024/01/14 08:18:11;;;;;;;50.92;21.92;;;;;;;;;;5113212;28;20203;-60
2024/01/14 08:20:37;;;;;;;53.13;23.25;;;;;;;;;;5113300;27;20226;-61
2024/01/14 08:23:03;;;;;;;53.38;23.13;;;;;;;;;;5113461;27;20619;-61
2024/01/14 08:25:31;;;;;;;60.70;26.17;;;;;;;;;;5113509;28;20219;-61
2024/01/14 08:27:57;;;;;;;77.32;31.38;;;;;;;;;;5113533;28;20252;-62
2024/01/14 08:30:23;;;;;;;65.72;27.70;;;;;;;;;;5113666;28;20248;-60
2024/01/14 08:32:50;;;;;;;58.00;30.23;;;;;;;;;;5113172;28;20199;-60
2024/01/14 08:35:17;;;;;;;54.67;26.15;;;;;;;;;;5113420;28;20223;-60
2024/01/14 08:37:43;;;;;;;54.00;25.00;;;;;;;;;;5113548;28;20340;-61
2024/01/14 08:40:12;;;;;;;56.55;26.77;;;;;;;;;;5113240;28;20306;-62
2024/01/14 08:42:43;;;;;;;55.88;24.33;;;;;;;;;;5112956;28;20204;-60
2024/01/14 08:45:10;;;;;;;54.95;25.25;;;;;;;;;;5112969;28;20572;-60
2024/01/14 08:47:36;;;;;;;52.60;24.42;;;;;;;;;;5112678;28;20248;-61
2024/01/14 08:50:02;;;;;;;57.00;26.00;;;;;;;;;;5112691;28;20225;-61
2024/01/14 08:52:28;;;;;;;59.80;25.38;;;;;;;;;;5110752;28;20723;-61
2024/01/14 08:54:55;;;;;;;54.05;25.90;;;;;;;;;;5110931;28;20240;-60
2024/01/14 08:57:21;;;;;;;55.15;24.33;;;;;;;;;;5111012;28;20256;-60
2024/01/14 08:59:48;;;;;;;52.55;24.98;;;;;;;;;;5111302;28;20215;-60
2024/01/14 09:02:15;;;;;;;52.85;24.98;;;;;;;;;;5110903;28;20509;-61
2024/01/14 09:04:41;;;;;;;58.75;26.77;;;;;;;;;;5111118;28;20207;-61
2024/01/14 09:07:07;;;;;;;58.75;27.50;;;;;;;;;;5112340;28;20215;-61
2024/01/14 09:09:33;;;;;;;50.63;24.15;;;;;;;;;;5112967;28;20233;-61
2024/01/14 09:12:00;;;;;;;57.17;25.80;;;;;;;;;;5112622;28;20264;-61
2024/01/14 09:14:26;;;;;;;54.38;25.67;;;;;;;;;;5113135;28;20289;-63
2024/01/14 09:16:53;;;;;;;61.97;28.98;;;;;;;;;;5112608;28;20223;-61
2024/01/14 09:19:20;;;;;;;57.40;27.08;;;;;;;;;;5112906;27;20256;-60
2024/01/14 09:21:46;;;;;;;55.72;26.30;;;;;;;;;;5112550;28;20215;-61
2024/01/14 09:24:12;;;;;;;58.22;27.17;;;;;;;;;;5112500;28;20199;-61
2024/01/14 09:26:38;;;;;;;60.53;27.67;;;;;;;;;;5112540;28;20219;-60
2024/01/14 09:29:04;;;;;;;65.93;29.52;;;;;;;;;;5112358;28;20207;-60
2024/01/14 09:31:31;;;;;;;62.33;28.27;;;;;;;;;;5112463;28;20199;-60
2024/01/14 09:33:58;;;;;;;52.97;24.90;;;;;;;;;;5112520;28;20207;-60
2024/01/14 09:36:26;;;;;;;53.35;24.77;;;;;;;;;;5112297;28;20272;-61
2024/01/14 09:38:52;;;;;;;53.10;25.17;;;;;;;;;;5112428;28;20203;-61
2024/01/14 09:41:24;;;;;;;58.00;26.20;;;;;;;;;;5112341;28;20215;-61
2024/01/14 09:43:51;;;;;;;57.90;27.48;;;;;;;;;;5112573;28;20248;-61
2024/01/14 09:46:18;;;;;;;55.67;25.80;;;;;;;;;;5112350;28;20707;-61
2024/01/14 09:48:45;;;;;;;53.90;24.95;;;;;;;;;;5112265;28;20203;-61
2024/01/14 09:51:13;;;;;;;58.58;25.98;;;;;;;;;;5112369;28;20207;-60
2024/01/14 09:53:41;;;;;;;57.40;26.02;;;;;;;;;;5112226;28;20252;-61
2024/01/14 09:56:10;;;;;;;51.05;25.27;;;;;;;;;;5111983;28;20253;-61
2024/01/14 09:58:36;;;;;;;50.95;24.30;;;;;;;;;;5112159;28;20249;-61
2024/01/14 10:01:05;;;;;;;56.55;25.02;;;;;;;;;;5111959;28;20215;-61
2024/01/14 10:03:31;;;;;;;62.08;26.92;;;;;;;;;;5112123;28;20769;-61
2024/01/14 10:05:58;;;;;;;52.97;24.13;;;;;;;;;;5114974;28;20231;-61
2024/01/14 10:08:26;;;;;;;57.97;25.92;;;;;;;;;;5116052;28;20721;-61
2024/01/14 10:10:53;;;;;;;55.90;25.40;;;;;;;;;;5116073;28;20195;-61
2024/01/14 10:13:20;;;;;;;48.40;24.05;;;;;;;;;;5116152;28;20285;-61
2024/01/14 10:15:47;;;;;;;58.97;26.27;;;;;;;;;;5116074;28;20249;-61
2024/01/14 10:18:14;;;;;;;55.03;25.25;;;;;;;;;;5116058;28;20206;-60
2024/01/14 10:20:40;;;;;;;50.13;24.50;;;;;;;;;;5115939;28;20222;-60
2024/01/14 10:23:06;;;;;;;50.28;24.90;;;;;;;;;;5115695;28;20651;-60
2024/01/14 10:25:34;;;;;;;50.58;25.63;;;;;;;;;;5115847;28;20775;-60
2024/01/14 10:28:03;;;;;;;48.38;23.73;;;;;;;;;;5116083;27;20205;-60
2024/01/14 10:30:29;;;;;;;47.78;24.33;;;;;;;;;;5115941;28;20240;-60
2024/01/14 10:32:55;;;;;;;54.40;25.63;;;;;;;;;;5115666;28;20210;-62
2024/01/14 10:35:24;;;;;;;50.95;24.38;;;;;;;;;;5115682;28;20242;-61
2024/01/14 10:37:50;;;;;;;53.75;23.77;;;;;;;;;;5115472;28;20199;-60
2024/01/14 10:40:17;;;;;;;54.13;24.73;;;;;;;;;;5115302;28;20543;-61
2024/01/14 10:42:45;;;;;;;45.90;23.42;;;;;;;;;;5115650;27;20249;-61
2024/01/14 10:45:11;;;;;;;47.97;24.13;;;;;;;;;;5115631;28;20250;-62
2024/01/14 10:47:37;;;;;;;44.00;23.65;;;;;;;;;;5115352;28;20206;-61
2024/01/14 10:50:05;;;;;;;45.35;23.25;;;;;;;;;;5115488;28;20252;-62
2024/01/14 10:52:32;;;;;;;45.65;24.02;;;;;;;;;;5115107;28;20209;-61
2024/01/14 10:55:01;;;;;;;54.25;24.90;;;;;;;;;;5115401;28;20248;-61
2024/01/14 10:57:33;;;;;;;45.58;22.67;;;;;;;;;;5115246;28;20199;-61
2024/01/14 11:00:04;;;;;;;43.65;22.45;;;;;;;;;;5115328;28;20199;-61
2024/01/14 11:02:32;;;;;;;43.60;23.13;;;;;;;;;;5115291;28;20203;-61
2024/01/14 11:04:59;;;;;;;57.60;26.17;;;;;;;;;;5115384;28;20252;-61
2024/01/14 11:07:25;;;;;;;46.78;23.38;;;;;;;;;;5115206;28;20205;-62
2024/01/14 11:09:52;;;;;;;44.03;22.58;;;;;;;;;;5115355;28;20203;-62
2024/01/14 11:12:21;;;;;;;62.70;27.73;;;;;;;;;;5115120;28;20200;-61
2024/01/14 11:14:52;;;;;;;60.90;26.98;;;;;;;;;;5115001;28;20206;-61
2024/01/14 11:17:23;;;;;;;44.80;22.92;;;;;;;;;;5113510;28;20203;-61
2024/01/14 11:19:50;;;;;;;67.72;27.77;;;;;;;;;;5115115;28;20633;-61
2024/01/14 11:22:19;;;;;;;71.05;28.60;;;;;;;;;;5114950;28;20254;-61
2024/01/14 11:24:45;;;;;;;153.73;45.00;;;;;;;;;;5114905;28;20585;-60
2024/01/14 11:27:11;;;;;;;44.80;22.75;;;;;;;;;;5114688;28;20222;-60
2024/01/14 11:29:40;;;;;;;51.65;24.08;;;;;;;;;;5114817;28;20248;-60
2024/01/14 11:32:07;;;;;;;44.08;21.90;;;;;;;;;;5114392;28;20290;-60
2024/01/14 11:34:59;;;;;;;40.83;20.73;;;;;;;;;;5114637;28;20203;-60
2024/01/14 11:37:40;;;;;;;41.72;22.23;;;;;;;;;;5099374;28;20256;-60
2024/01/14 11:40:24;;;;;;;46.28;21.13;;;;;;;;;;5114433;28;20199;-60
2024/01/14 11:42:56;;;;;;;46.85;21.63;;;;;;;;;;5114185;28;20207;-61
2024/01/14 11:45:37;;;;;;;44.40;21.98;;;;;;;;;;5114227;28;20764;-61
2024/01/14 11:48:05;;;;;;;44.20;22.92;;;;;;;;;;5114312;28;20232;-61
2024/01/14 11:50:31;;;;;;;44.38;22.33;;;;;;;;;;5114184;28;20203;-62
2024/01/14 11:52:59;;;;;;;42.28;21.38;;;;;;;;;;5114125;28;20210;-61
2024/01/14 11:55:26;;;;;;;37.00;20.42;;;;;;;;;;5114298;28;20325;-63
2024/01/14 11:57:53;;;;;;;40.35;20.67;;;;;;;;;;5114318;28;20203;-63
2024/01/14 12:00:22;;;;;;;38.65;20.55;;;;;;;;;;5114615;28;20199;-62
2024/01/14 12:03:02;;;;;;;42.10;21.90;;;;;;;;;;5114016;28;20203;-61
2024/01/14 12:05:29;;;;;;;39.25;21.52;;;;;;;;;;5114071;28;20656;-63
2024/01/14 12:07:55;;;;;;;42.55;23.95;;;;;;;;;;5114025;28;20226;-60
2024/01/14 12:10:22;;;;;;;43.20;22.05;;;;;;;;;;5114376;28;20195;-60
2024/01/14 12:12:49;;;;;;;39.17;21.45;;;;;;;;;;5113647;28;20199;-60
2024/01/14 12:15:15;;;;;;;40.65;21.00;;;;;;;;;;5113910;28;20215;-63
2024/01/14 12:17:52;;;;;;;41.30;21.65;;;;;;;;;;5113369;28;20577;-60
2024/01/14 12:20:21;;;;;;;40.50;20.85;;;;;;;;;;5114190;28;20223;-60
2024/01/14 12:22:47;;;;;;;37.08;20.55;;;;;;;;;;5113620;28;20230;-61
2024/01/14 12:25:15;;;;;;;38.40;20.67;;;;;;;;;;5115505;28;20226;-61
2024/01/14 12:30:45;;;;;;;39.05;20.20;;;;;;;;;;5118347;28;20181;-61
2024/01/14 12:33:12;;;;;;;35.42;20.42;;;;;;;;;;5116701;28;20225;-61
2024/01/14 12:35:39;;;;;;;38.75;21.15;;;;;;;;;;5117481;27;20218;-61
2024/01/14 12:38:07;;;;;;;41.80;21.42;;;;;;;;;;5117669;28;20583;-61
2024/01/14 12:40:33;;;;;;;41.38;21.65;;;;;;;;;;5117947;28;20210;-61
2024/01/14 12:43:00;;;;;;;39.80;21.13;;;;;;;;;;5114701;28;20222;-61
2024/01/14 12:45:26;;;;;;;35.53;20.10;;;;;;;;;;5117577;28;20292;-61
2024/01/14 12:47:57;;;;;;;39.97;21.08;;;;;;;;;;5119647;28;20248;-61
2024/01/14 12:50:23;;;;;;;54.70;26.55;;;;;;;;;;5120200;28;20195;-61
2024/01/14 12:52:56;;;;;;;45.70;23.90;;;;;;;;;;5119626;28;20199;-61
2024/01/14 12:55:22;;;;;;;46.45;22.38;;;;;;;;;;5119944;28;20248;-61
2024/01/14 12:57:49;;;;;;;63.90;30.75;;;;;;;;;;5115122;28;20199;-60
2024/01/14 13:00:15;;;;;;;42.40;20.92;;;;;;;;;;5113243;27;20400;-60
2024/01/14 13:02:42;;;;;;;36.20;20.00;;;;;;;;;;5113442;28;20225;-60
2024/01/14 13:05:09;;;;;;;35.80;20.58;;;;;;;;;;5116459;28;20212;-60
2024/01/14 13:07:36;;;;;;;38.45;21.10;;;;;;;;;;5115211;28;20207;-61
2024/01/14 13:10:03;;;;;;;41.30;21.52;;;;;;;;;;5112898;28;20203;-60
2024/01/14 13:12:29;;;;;;;35.78;20.55;;;;;;;;;;5116118;28;20196;-61
2024/01/14 13:14:55;;;;;;;38.38;20.60;;;;;;;;;;5114413;28;20203;-61
2024/01/14 13:17:21;;;;;;;37.75;20.80;;;;;;;;;;5112513;28;20202;-61
2024/01/14 13:19:48;;;;;;;41.53;21.23;;;;;;;;;;5112709;28;20203;-61
2024/01/14 13:22:15;;;;;;;38.88;19.65;;;;;;;;;;5112476;28;20219;-61
2024/01/14 13:24:42;;;;;;;40.38;20.05;;;;;;;;;;5112521;28;20202;-60
2024/01/14 13:27:08;;;;;;;34.55;18.98;;;;;;;;;;5112611;28;20222;-61
2024/01/14 13:29:34;;;;;;;35.70;20.50;;;;;;;;;;5112587;28;20513;-61
2024/01/14 13:32:01;;;;;;;41.88;21.20;;;;;;;;;;5112442;28;20221;-61
2024/01/14 13:34:27;;;;;;;39.22;20.58;;;;;;;;;;5112351;28;20244;-61
2024/01/14 13:36:54;;;;;;;33.28;19.40;;;;;;;;;;5112281;28;20283;-61
2024/01/14 13:39:22;;;;;;;33.63;19.60;;;;;;;;;;5111889;28;20237;-61
2024/01/14 13:41:48;;;;;;;36.47;20.33;;;;;;;;;;5112483;28;20223;-61
2024/01/14 13:44:14;;;;;;;36.55;20.92;;;;;;;;;;5112579;28;20634;-61
2024/01/14 13:46:41;;;;;;;34.03;20.30;;;;;;;;;;5112046;28;20227;-61
2024/01/14 13:49:07;;;;;;;35.85;19.50;;;;;;;;;;5112350;28;20195;-61
2024/01/14 13:51:33;;;;;;;35.67;20.05;;;;;;;;;;5112249;28;20268;-61
2024/01/14 13:53:59;;;;;;;34.47;19.45;;;;;;;;;;5112433;28;20199;-61
2024/01/14 13:56:27;;;;;;;33.85;19.10;;;;;;;;;;5111892;28;20635;-61
2024/01/14 13:58:53;;;;;;;36.28;20.27;;;;;;;;;;5112201;28;20659;-61
2024/01/14 14:01:19;;;;;;;37.03;21.15;;;;;;;;;;5111976;28;20210;-61
2024/01/14 14:03:46;;;;;;;38.80;19.83;;;;;;;;;;5112190;28;20202;-61
2024/01/14 14:06:12;;;;;;;36.17;19.83;;;;;;;;;;5112080;28;20278;-61
2024/01/14 14:08:38;;;;;;;37.50;20.52;;;;;;;;;;5112105;28;20203;-61
2024/01/14 14:11:04;;;;;;;39.00;21.20;;;;;;;;;;5112362;28;20203;-60
2024/01/14 14:13:32;;;;;;;35.78;19.35;;;;;;;;;;5112088;28;20203;-61
2024/01/14 14:16:00;;;;;;;36.92;19.80;;;;;;;;;;5112205;28;20215;-61
2024/01/14 14:18:26;;;;;;;38.92;19.27;;;;;;;;;;5113194;28;20203;-62
2024/01/14 14:20:52;;;;;;;37.60;21.33;;;;;;;;;;5113573;28;20623;-61